createdAt,value
2023-04-08T00:02:05.669Z,23.53
2023-04-08T00:04:34.878Z,23.56
2023-04-08T00:07:04.146Z,23.53
2023-04-08T00:09:33.330Z,23.58
2023-04-08T00:12:02.930Z,23.54
2023-04-08T00:14:33.050Z,23.52
2023-04-08T00:17:02.375Z,23.51
2023-04-08T00:19:31.415Z,23.52
2023-04-08T00:22:00.743Z,23.50
2023-04-08T00:24:29.742Z,23.55
2023-04-08T00:26:59.140Z,23.53
2023-04-08T00:29:28.802Z,23.45
2023-04-08T00:31:57.697Z,23.40
2023-04-08T00:34:27.043Z,23.39
2023-04-08T00:36:56.186Z,23.42
2023-04-08T00:39:25.756Z,23.46
2023-04-08T00:41:54.900Z,23.43
2023-04-08T00:44:24.170Z,23.42
2023-04-08T00:46:53.295Z,23.35
2023-04-08T00:49:22.490Z,23.31
2023-04-08T00:51:51.838Z,23.26
2023-04-08T00:54:21.030Z,23.25
2023-04-08T00:56:50.059Z,23.22
2023-04-08T00:59:20.457Z,23.15
2023-04-08T01:02:37.449Z,23.15
2023-04-08T01:05:10.616Z,23.15
2023-04-08T01:07:46.711Z,23.11
2023-04-08T01:10:30.389Z,23.16
2023-04-08T01:13:09.575Z,23.15
2023-04-08T01:15:41.753Z,23.14
2023-04-08T01:18:14.723Z,23.14
2023-04-08T01:20:45.569Z,23.22
2023-04-08T01:23:49.625Z,23.26
2023-04-08T01:26:25.686Z,23.47
2023-04-08T01:29:00.938Z,23.45
2023-04-08T01:31:32.798Z,23.53
2023-04-08T01:34:05.709Z,23.61
2023-04-08T01:36:37.051Z,23.58
2023-04-08T01:39:09.283Z,23.61
2023-04-08T01:41:39.757Z,23.72
2023-04-08T01:44:09.226Z,23.69
2023-04-08T01:46:40.412Z,23.86
2023-04-08T01:49:11.059Z,23.94
2023-04-08T01:51:40.983Z,24.01
2023-04-08T01:54:10.057Z,24.10
2023-04-08T01:56:43.166Z,24.14
2023-04-08T01:59:15.582Z,24.23
2023-04-08T02:01:46.111Z,24.34
2023-04-08T02:04:15.640Z,24.13
2023-04-08T02:06:47.659Z,24.02
2023-04-08T02:09:16.720Z,23.89
2023-04-08T02:11:45.634Z,23.86
2023-04-08T02:14:15.124Z,23.90
2023-04-08T02:16:57.591Z,23.96
2023-04-08T02:19:42.746Z,24.00
2023-04-08T02:22:19.741Z,23.77
2023-04-08T02:24:50.136Z,23.76
2023-04-08T02:27:20.931Z,23.72
2023-04-08T02:29:52.237Z,23.86
2023-04-08T02:32:27.314Z,24.18
2023-04-08T02:34:57.794Z,24.22
2023-04-08T02:37:27.135Z,24.21
2023-04-08T02:39:56.238Z,24.24
2023-04-08T02:42:25.953Z,24.36
2023-04-08T02:44:55.174Z,24.42
2023-04-08T02:47:24.719Z,24.47
2023-04-08T02:49:54.627Z,24.56
2023-04-08T02:52:23.728Z,24.60
2023-04-08T02:54:52.572Z,24.67
2023-04-08T02:57:21.729Z,24.77
2023-04-08T02:59:50.666Z,24.74
2023-04-08T03:02:19.969Z,24.86
2023-04-08T03:04:48.846Z,25.00
2023-04-08T03:07:17.972Z,25.02
2023-04-08T03:09:47.174Z,25.05
2023-04-08T03:12:16.303Z,25.19
2023-04-08T03:14:45.303Z,25.29
2023-04-08T03:17:14.965Z,25.43
2023-04-08T03:19:43.857Z,25.57
2023-04-08T03:22:13.124Z,25.65
2023-04-08T03:24:42.336Z,25.61
2023-04-08T03:27:11.504Z,25.75
2023-04-08T03:29:40.876Z,25.87
2023-04-08T03:32:10.218Z,25.95
2023-04-08T03:34:39.295Z,26.12
2023-04-08T03:37:08.835Z,26.10
2023-04-08T03:39:38.235Z,26.16
2023-04-08T03:42:07.330Z,26.26
2023-04-08T03:44:36.959Z,26.48
2023-04-08T03:47:05.927Z,26.54
2023-04-08T03:49:34.842Z,26.58
2023-04-08T03:52:04.047Z,26.62
2023-04-08T03:54:33.173Z,26.73
2023-04-08T03:57:02.305Z,26.78
2023-04-08T03:59:31.574Z,26.77
2023-04-08T04:02:00.808Z,26.87
2023-04-08T04:04:30.481Z,27.13
2023-04-08T04:06:59.625Z,27.17
2023-04-08T04:09:29.295Z,27.26
2023-04-08T04:11:58.324Z,27.33
2023-04-08T04:14:27.568Z,27.27
2023-04-08T04:16:56.457Z,27.47
2023-04-08T04:19:25.710Z,27.62
2023-04-08T04:21:54.608Z,27.59
2023-04-08T04:24:24.383Z,27.77
2023-04-08T04:26:53.293Z,27.67
2023-04-08T04:29:22.857Z,27.91
2023-04-08T04:31:51.803Z,27.74
2023-04-08T04:34:20.860Z,28.14
2023-04-08T04:36:49.859Z,28.30
2023-04-08T04:39:19.420Z,28.56
2023-04-08T04:41:50.021Z,28.22
2023-04-08T04:44:19.234Z,28.65
2023-04-08T04:46:48.451Z,28.73
2023-04-08T04:49:17.467Z,28.90
2023-04-08T04:51:46.683Z,29.15
2023-04-08T04:54:15.464Z,29.17
2023-04-08T04:56:44.633Z,29.33
2023-04-08T04:59:13.838Z,29.47
2023-04-08T05:01:43.254Z,29.58
2023-04-08T05:04:12.303Z,29.70
2023-04-08T05:06:41.571Z,29.46
2023-04-08T05:09:11.401Z,29.63
2023-04-08T05:11:40.390Z,29.62
2023-04-08T05:14:09.628Z,29.91
2023-04-08T05:16:39.741Z,29.94
2023-04-08T05:19:08.700Z,30.27
2023-04-08T05:21:37.964Z,30.23
2023-04-08T05:24:07.146Z,30.36
2023-04-08T05:26:36.613Z,30.46
2023-04-08T05:29:05.623Z,30.44
2023-04-08T05:31:34.663Z,30.51
2023-04-08T05:34:03.854Z,30.55
2023-04-08T05:36:33.350Z,30.68
2023-04-08T05:39:03.474Z,30.90
2023-04-08T05:41:32.789Z,30.98
2023-04-08T05:44:01.682Z,30.91
2023-04-08T05:46:30.816Z,31.08
2023-04-08T05:49:00.365Z,31.22
2023-04-08T05:51:29.340Z,31.28
2023-04-08T05:53:58.481Z,31.36
2023-04-08T05:56:27.474Z,31.41
2023-04-08T05:58:56.444Z,31.51
2023-04-08T06:01:26.644Z,31.64
2023-04-08T06:03:57.384Z,31.64
2023-04-08T06:06:29.702Z,31.58
2023-04-08T06:08:58.632Z,31.68
2023-04-08T06:11:27.922Z,31.82
2023-04-08T06:13:56.822Z,31.91
2023-04-08T06:16:26.302Z,31.61
2023-04-08T06:18:55.734Z,31.69
2023-04-08T06:21:24.968Z,32.00
2023-04-08T06:23:53.893Z,31.92
2023-04-08T06:26:23.369Z,32.08
2023-04-08T06:28:53.233Z,32.20
2023-04-08T06:31:22.939Z,32.17
2023-04-08T06:33:53.501Z,32.28
2023-04-08T06:36:22.914Z,32.41
2023-04-08T06:38:52.332Z,32.49
2023-04-08T06:41:22.117Z,32.30
2023-04-08T06:43:51.795Z,32.62
2023-04-08T06:46:20.798Z,32.66
2023-04-08T06:48:49.988Z,32.46
2023-04-08T06:51:19.456Z,32.44
2023-04-08T06:53:48.484Z,32.83
2023-04-08T06:56:17.835Z,32.73
2023-04-08T06:58:47.249Z,32.84
2023-04-08T07:01:17.439Z,32.92
2023-04-08T07:03:46.712Z,32.91
2023-04-08T07:06:15.833Z,32.80
2023-04-08T07:08:45.142Z,32.93
2023-04-08T07:11:14.363Z,33.03
2023-04-08T07:13:43.488Z,33.17
2023-04-08T07:16:12.669Z,33.06
2023-04-08T07:18:43.910Z,33.25
2023-04-08T07:21:13.642Z,33.29
2023-04-08T07:23:44.085Z,33.11
2023-04-08T07:26:13.077Z,32.87
2023-04-08T07:28:42.437Z,33.21
2023-04-08T07:31:16.062Z,33.43
2023-04-08T07:33:46.886Z,33.15
2023-04-08T07:36:16.536Z,33.28
2023-04-08T07:38:45.624Z,33.16
2023-04-08T07:41:15.399Z,33.33
2023-04-08T07:43:44.499Z,33.34
2023-04-08T07:46:13.748Z,33.53
2023-04-08T07:48:42.736Z,33.34
2023-04-08T07:51:12.002Z,33.70
2023-04-08T07:53:44.507Z,33.54
2023-04-08T07:56:16.039Z,33.61
2023-04-08T07:58:45.257Z,33.63
2023-04-08T08:01:22.802Z,33.78
2023-04-08T08:03:55.078Z,33.49
2023-04-08T08:06:24.754Z,33.55
2023-04-08T08:08:53.734Z,33.60
2023-04-08T08:11:23.720Z,33.74
2023-04-08T08:13:52.821Z,33.85
2023-04-08T08:16:22.297Z,33.92
2023-04-08T08:18:51.855Z,33.92
2023-04-08T08:21:20.656Z,33.85
2023-04-08T08:23:50.084Z,33.90
2023-04-08T08:26:19.242Z,33.74
2023-04-08T08:28:48.021Z,33.66
2023-04-08T08:31:17.236Z,33.91
2023-04-08T08:33:46.159Z,33.88
2023-04-08T08:36:16.066Z,33.79
2023-04-08T08:38:45.813Z,33.61
2023-04-08T08:41:14.916Z,33.80
2023-04-08T08:43:46.274Z,33.86
2023-04-08T08:46:19.024Z,33.75
2023-04-08T08:48:48.365Z,33.89
2023-04-08T08:51:17.426Z,33.74
2023-04-08T08:53:46.604Z,33.52
2023-04-08T08:56:18.705Z,33.92
2023-04-08T08:58:48.490Z,33.98
2023-04-08T09:01:43.162Z,34.07
2023-04-08T09:04:21.285Z,34.12
2023-04-08T09:07:09.614Z,34.05
2023-04-08T09:09:52.747Z,34.10
2023-04-08T09:12:22.473Z,34.04
2023-04-08T09:14:52.139Z,34.07
2023-04-08T09:17:47.682Z,34.00
2023-04-08T09:20:17.497Z,33.96
2023-04-08T09:23:00.598Z,34.05
2023-04-08T09:25:34.128Z,33.82
2023-04-08T09:28:04.457Z,33.78
2023-04-08T09:30:34.331Z,33.77
2023-04-08T09:33:08.373Z,33.72
2023-04-08T09:35:37.858Z,33.75
2023-04-08T09:38:07.074Z,33.77
2023-04-08T09:40:37.669Z,33.63
2023-04-08T09:43:09.864Z,33.71
2023-04-08T09:45:42.655Z,33.72
2023-04-08T09:48:15.848Z,33.83
2023-04-08T09:50:54.238Z,33.72
2023-04-08T09:53:35.632Z,33.51
2023-04-08T09:56:09.836Z,33.60
2023-04-08T09:58:57.067Z,33.63
2023-04-08T10:01:41.849Z,33.57
2023-04-08T10:04:16.893Z,33.51
2023-04-08T10:06:46.438Z,33.48
2023-04-08T10:09:15.527Z,33.39
2023-04-08T10:11:44.850Z,33.34
2023-04-08T10:14:13.850Z,33.39
2023-04-08T10:16:43.085Z,33.30
2023-04-08T10:19:40.607Z,33.43
2023-04-08T10:22:35.953Z,33.39
2023-04-08T10:25:20.166Z,33.40
2023-04-08T10:27:49.550Z,33.26
2023-04-08T10:30:28.027Z,33.29
2023-04-08T10:32:58.156Z,33.28
2023-04-08T10:35:36.995Z,33.36
2023-04-08T10:38:06.167Z,33.28
2023-04-08T10:40:43.580Z,33.35
2023-04-08T10:43:14.034Z,33.23
2023-04-08T10:45:45.944Z,33.33
2023-04-08T10:48:30.139Z,33.31
2023-04-08T10:51:05.002Z,33.48
2023-04-08T10:53:38.698Z,33.37
2023-04-08T10:56:14.333Z,33.36
2023-04-08T10:58:57.465Z,33.30
2023-04-08T11:01:27.481Z,33.34
2023-04-08T11:03:56.691Z,33.27
2023-04-08T11:06:26.521Z,33.09
2023-04-08T11:09:01.313Z,33.29
2023-04-08T11:11:30.778Z,33.22
2023-04-08T11:13:59.863Z,33.18
2023-04-08T11:16:30.271Z,33.12
2023-04-08T11:19:00.054Z,33.24
2023-04-08T11:21:30.646Z,33.27
2023-04-08T11:24:00.383Z,33.19
2023-04-08T11:26:29.655Z,33.17
2023-04-08T11:28:59.441Z,33.12
2023-04-08T11:31:29.374Z,33.10
2023-04-08T11:33:58.592Z,33.17
2023-04-08T11:36:30.266Z,33.22
2023-04-08T11:38:59.514Z,33.22
2023-04-08T11:41:39.510Z,33.32
2023-04-08T11:44:09.173Z,33.27
2023-04-08T11:46:38.898Z,33.27
2023-04-08T11:49:10.979Z,33.28
2023-04-08T11:51:58.784Z,33.23
2023-04-08T11:54:33.020Z,33.11
2023-04-08T11:57:04.124Z,33.00
2023-04-08T11:59:33.187Z,33.07
2023-04-08T12:02:03.060Z,33.14
2023-04-08T12:04:33.335Z,33.05
2023-04-08T12:07:02.928Z,33.06
2023-04-08T12:09:32.263Z,32.98
2023-04-08T12:12:02.415Z,32.97
2023-04-08T12:14:31.513Z,33.00
2023-04-08T12:17:01.152Z,32.94
2023-04-08T12:19:31.216Z,32.87
2023-04-08T12:22:02.607Z,32.86
2023-04-08T12:24:32.211Z,32.61
2023-04-08T12:27:03.648Z,32.71
2023-04-08T12:29:33.345Z,32.72
2023-04-08T12:32:03.314Z,32.55
2023-04-08T12:34:32.928Z,32.60
2023-04-08T12:37:02.308Z,32.52
2023-04-08T12:39:31.269Z,32.43
2023-04-08T12:42:00.638Z,32.47
2023-04-08T12:44:30.076Z,32.36
2023-04-08T12:47:02.213Z,32.30
2023-04-08T12:49:39.635Z,32.33
2023-04-08T12:52:18.125Z,32.26
2023-04-08T12:54:47.426Z,32.16
2023-04-08T12:57:16.452Z,32.09
2023-04-08T12:59:45.629Z,32.03
2023-04-08T13:02:15.295Z,32.01
2023-04-08T13:04:44.226Z,31.95
2023-04-08T13:07:13.591Z,31.83
2023-04-08T13:09:44.194Z,31.81
2023-04-08T13:12:15.708Z,31.78
2023-04-08T13:14:45.480Z,31.66
2023-04-08T13:17:14.499Z,31.58
2023-04-08T13:19:43.768Z,31.53
2023-04-08T13:22:12.915Z,31.41
2023-04-08T13:24:41.644Z,31.29
2023-04-08T13:27:11.326Z,31.20
2023-04-08T13:29:40.120Z,31.14
2023-04-08T13:32:09.142Z,31.01
2023-04-08T13:34:38.212Z,30.91
2023-04-08T13:37:07.243Z,30.78
2023-04-08T13:39:36.503Z,30.61
2023-04-08T13:42:05.844Z,30.46
2023-04-08T13:44:34.759Z,30.36
2023-04-08T13:47:03.860Z,30.20
2023-04-08T13:49:33.161Z,30.13
2023-04-08T13:52:02.093Z,30.02
2023-04-08T13:54:31.134Z,29.87
2023-04-08T13:57:00.301Z,29.84
2023-04-08T13:59:29.400Z,29.79
2023-04-08T14:01:58.820Z,29.77
2023-04-08T14:04:28.619Z,29.74
2023-04-08T14:06:59.204Z,29.65
2023-04-08T14:09:29.059Z,29.57
2023-04-08T14:11:57.923Z,29.46
2023-04-08T14:14:27.280Z,29.42
2023-04-08T14:16:56.108Z,29.34
2023-04-08T14:19:25.489Z,29.29
2023-04-08T14:21:54.813Z,29.23
2023-04-08T14:24:23.891Z,29.14
2023-04-08T14:26:53.062Z,29.03
2023-04-08T14:29:22.131Z,28.94
2023-04-08T14:31:51.124Z,28.90
2023-04-08T14:34:19.865Z,28.80
2023-04-08T14:36:49.299Z,28.71
2023-04-08T14:39:18.251Z,28.60
2023-04-08T14:41:48.596Z,28.62
2023-04-08T14:44:17.826Z,28.55
2023-04-08T14:46:46.552Z,28.60
2023-04-08T14:49:15.673Z,28.59
2023-04-08T14:51:44.530Z,28.55
2023-04-08T14:54:15.133Z,28.51
2023-04-08T14:56:44.084Z,28.42
2023-04-08T14:59:13.127Z,28.28
2023-04-08T15:01:42.597Z,28.27
2023-04-08T15:04:12.692Z,28.28
2023-04-08T15:06:42.099Z,28.29
2023-04-08T15:09:11.213Z,28.27
2023-04-08T15:11:40.296Z,28.29
2023-04-08T15:14:09.165Z,28.22
2023-04-08T15:16:38.380Z,28.18
2023-04-08T15:19:07.299Z,28.14
2023-04-08T15:21:36.334Z,28.09
2023-04-08T15:24:05.765Z,28.01
2023-04-08T15:26:34.548Z,27.93
2023-04-08T15:29:05.187Z,27.89
2023-04-08T15:31:36.102Z,27.86
2023-04-08T15:34:05.737Z,27.78
2023-04-08T15:36:37.337Z,27.77
2023-04-08T15:39:07.198Z,27.70
2023-04-08T15:41:36.439Z,27.70
2023-04-08T15:44:05.553Z,27.74
2023-04-08T15:46:36.800Z,27.78
2023-04-08T15:49:07.348Z,27.77
2023-04-08T15:51:36.410Z,27.81
2023-04-08T15:54:05.392Z,27.77
2023-04-08T15:56:34.713Z,27.75
2023-04-08T15:59:03.934Z,27.72
2023-04-08T16:01:34.110Z,27.67
2023-04-08T16:04:03.483Z,27.61
2023-04-08T16:06:32.433Z,27.57
2023-04-08T16:09:02.215Z,27.57
2023-04-08T16:11:31.326Z,27.55
2023-04-08T16:14:00.300Z,27.55
2023-04-08T16:16:29.803Z,27.55
2023-04-08T16:18:59.543Z,27.50
2023-04-08T16:21:28.751Z,27.45
2023-04-08T16:23:58.493Z,27.39
2023-04-08T16:26:28.581Z,27.36
2023-04-08T16:28:57.828Z,27.32
2023-04-08T16:31:27.052Z,27.29
2023-04-08T16:33:56.256Z,27.24
2023-04-08T16:36:25.341Z,27.23
2023-04-08T16:38:55.786Z,27.22
2023-04-08T16:41:24.782Z,27.18
2023-04-08T16:43:54.376Z,27.13
2023-04-08T16:46:25.450Z,27.11
2023-04-08T16:48:54.502Z,27.05
2023-04-08T16:51:23.353Z,27.01
2023-04-08T16:53:52.968Z,26.98
2023-04-08T16:56:23.146Z,26.93
2023-04-08T16:58:53.635Z,26.88
2023-04-08T17:01:22.795Z,26.81
2023-04-08T17:03:53.394Z,26.78
2023-04-08T17:06:23.504Z,26.74
2023-04-08T17:08:52.638Z,26.71
2023-04-08T17:11:23.000Z,26.63
2023-04-08T17:13:52.197Z,26.63
2023-04-08T17:16:21.490Z,26.62
2023-04-08T17:18:52.445Z,26.62
2023-04-08T17:21:21.408Z,26.56
2023-04-08T17:23:50.621Z,26.57
2023-04-08T17:26:19.910Z,26.56
2023-04-08T17:28:49.468Z,26.48
2023-04-08T17:31:18.540Z,26.50
2023-04-08T17:33:47.779Z,26.51
2023-04-08T17:36:18.624Z,26.50
2023-04-08T17:38:50.145Z,26.48
2023-04-08T17:41:38.028Z,26.45
2023-04-08T17:44:08.702Z,26.43
2023-04-08T17:46:37.973Z,26.42
2023-04-08T17:49:07.169Z,26.40
2023-04-08T17:51:36.150Z,26.36
2023-04-08T17:54:06.264Z,26.29
2023-04-08T17:56:35.336Z,26.23
2023-04-08T17:59:04.285Z,26.21
2023-04-08T18:01:33.443Z,26.16
2023-04-08T18:04:02.896Z,26.14
2023-04-08T18:06:33.427Z,26.16
2023-04-08T18:09:04.577Z,26.07
2023-04-08T18:11:33.883Z,26.05
2023-04-08T18:14:03.069Z,26.04
2023-04-08T18:16:31.875Z,25.96
2023-04-08T18:19:01.099Z,26.04
2023-04-08T18:21:30.041Z,26.01
2023-04-08T18:23:59.367Z,25.95
2023-04-08T18:26:29.242Z,25.96
2023-04-08T18:28:58.380Z,25.94
2023-04-08T18:31:27.711Z,25.80
2023-04-08T18:33:57.711Z,25.82
2023-04-08T18:36:27.393Z,25.82
2023-04-08T18:38:56.488Z,25.82
2023-04-08T18:41:26.634Z,25.77
2023-04-08T18:43:56.707Z,25.76
2023-04-08T18:46:25.785Z,25.70
2023-04-08T18:48:54.587Z,25.66
2023-04-08T18:51:24.348Z,25.62
2023-04-08T18:53:53.745Z,25.58
2023-04-08T18:56:22.644Z,25.55
2023-04-08T18:58:52.313Z,25.60
2023-04-08T19:01:21.223Z,25.66
2023-04-08T19:03:50.690Z,25.62
2023-04-08T19:06:23.355Z,25.60
2023-04-08T19:08:52.526Z,25.54
2023-04-08T19:11:21.845Z,25.53
2023-04-08T19:13:50.939Z,25.54
2023-04-08T19:16:19.936Z,25.50
2023-04-08T19:18:49.287Z,25.46
2023-04-08T19:21:18.263Z,25.38
2023-04-08T19:23:48.983Z,25.34
2023-04-08T19:26:18.300Z,25.41
2023-04-08T19:28:48.226Z,25.39
2023-04-08T19:31:21.577Z,25.47
2023-04-08T19:33:50.879Z,25.40
2023-04-08T19:36:20.265Z,25.38
2023-04-08T19:38:49.513Z,25.34
2023-04-08T19:41:19.235Z,25.27
2023-04-08T19:43:48.632Z,25.16
2023-04-08T19:46:18.067Z,25.14
2023-04-08T19:48:47.424Z,25.14
2023-04-08T19:51:23.515Z,25.16
2023-04-08T19:53:55.664Z,25.16
2023-04-08T19:56:24.610Z,25.12
2023-04-08T19:58:54.433Z,25.00
2023-04-08T20:01:24.699Z,24.93
2023-04-08T20:03:54.510Z,24.90
2023-04-08T20:06:24.152Z,24.90
2023-04-08T20:08:55.329Z,24.93
2023-04-08T20:11:25.110Z,24.80
2023-04-08T20:13:55.377Z,24.79
2023-04-08T20:16:26.104Z,24.78
2023-04-08T20:18:57.046Z,24.86
2023-04-08T20:21:28.225Z,24.86
2023-04-08T20:23:59.369Z,24.88
2023-04-08T20:26:30.282Z,24.84
2023-04-08T20:29:01.566Z,24.71
2023-04-08T20:31:33.727Z,24.55
2023-04-08T20:34:05.319Z,24.39
2023-04-08T20:36:36.125Z,24.21
2023-04-08T20:39:06.908Z,24.47
2023-04-08T20:41:37.390Z,24.41
2023-04-08T20:44:10.203Z,24.39
2023-04-08T20:46:40.258Z,24.37
2023-04-08T20:49:11.201Z,24.39
2023-04-08T20:51:41.085Z,24.40
2023-04-08T20:54:11.740Z,24.34
2023-04-08T20:56:43.356Z,24.36
2023-04-08T20:59:14.011Z,24.28
2023-04-08T21:01:45.244Z,24.29
2023-04-08T21:04:16.280Z,24.21
2023-04-08T21:06:46.526Z,24.16
2023-04-08T21:09:17.419Z,24.14
2023-04-08T21:11:48.243Z,24.13
2023-04-08T21:14:18.488Z,24.12
2023-04-08T21:16:48.783Z,23.98
2023-04-08T21:19:19.064Z,23.95
2023-04-08T21:21:49.867Z,23.88
2023-04-08T21:24:20.652Z,23.81
2023-04-08T21:26:51.152Z,23.76
2023-04-08T21:29:21.648Z,23.71
2023-04-08T21:31:51.694Z,23.64
2023-04-08T21:34:22.554Z,23.73
2023-04-08T21:36:52.729Z,23.72
2023-04-08T21:39:23.941Z,23.71
2023-04-08T21:41:55.299Z,23.66
2023-04-08T21:44:26.508Z,23.61
2023-04-08T21:46:58.291Z,23.57
2023-04-08T21:49:31.231Z,23.57
2023-04-08T21:52:02.336Z,23.86
2023-04-08T21:54:32.765Z,23.86
2023-04-08T21:57:03.747Z,23.85
2023-04-08T21:59:34.050Z,23.85
2023-04-08T22:02:05.661Z,23.87
2023-04-08T22:04:36.264Z,23.85
2023-04-08T22:07:07.006Z,23.74
2023-04-08T22:09:37.713Z,23.72
2023-04-08T22:12:07.989Z,23.75
2023-04-08T22:14:38.897Z,23.67
2023-04-08T22:17:10.172Z,23.64
2023-04-08T22:19:41.323Z,23.57
2023-04-08T22:22:11.512Z,23.55
2023-04-08T22:24:42.175Z,23.52
2023-04-08T22:27:12.302Z,23.43
2023-04-08T22:29:41.692Z,23.46
2023-04-08T22:32:10.723Z,23.50
2023-04-08T22:34:39.857Z,23.47
2023-04-08T22:37:08.858Z,23.44
2023-04-08T22:39:38.158Z,23.44
2023-04-08T22:42:07.178Z,23.42
2023-04-08T22:44:36.098Z,23.38
2023-04-08T22:47:05.387Z,23.38
2023-04-08T22:49:34.949Z,23.32
2023-04-08T22:52:04.417Z,23.34
2023-04-08T22:54:33.247Z,23.31
2023-04-08T22:57:03.229Z,23.31
2023-04-08T22:59:32.211Z,23.22
2023-04-08T23:02:01.578Z,23.22
2023-04-08T23:04:30.845Z,23.19
2023-04-08T23:06:59.646Z,23.14
2023-04-08T23:09:29.133Z,23.14
2023-04-08T23:11:59.172Z,23.11
2023-04-08T23:14:28.175Z,23.12
2023-04-08T23:16:57.309Z,23.09
2023-04-08T23:19:26.314Z,23.07
2023-04-08T23:21:55.900Z,23.15
2023-04-08T23:24:24.989Z,23.11
2023-04-08T23:26:53.994Z,23.12
2023-04-08T23:29:23.200Z,23.10
2023-04-08T23:31:52.430Z,23.09
2023-04-08T23:34:21.353Z,23.10
2023-04-08T23:36:50.797Z,23.13
2023-04-08T23:39:21.006Z,23.15
2023-04-08T23:41:49.963Z,23.10
2023-04-08T23:44:19.830Z,23.10
2023-04-08T23:46:48.860Z,23.07
2023-04-08T23:49:18.163Z,23.01
2023-04-08T23:51:47.096Z,23.06
2023-04-08T23:54:16.789Z,23.14
2023-04-08T23:56:45.736Z,22.95
2023-04-08T23:59:14.884Z,22.88
